Time;durP1;ratioP1;P1;durP2;ratioP2;P2;SDS_P1;SDS_P2;PMS_P1;PMS_P2;Temp;Humidity;BMP_temperature;BMP_pressure;BME280_temperature;BME280_humidity;BME280_pressure;Samples;Min_cycle;Max_cycle;Signal;HPM_P1;HPM_P2
2022/04/30 00:00:05;;;;;;;;;;;12.50;49.00;;;;;;5019487;28;19917;-90
2022/04/30 00:02:31;;;;;;;;;;;12.50;48.70;;;;;;5019296;28;19921;-91
2022/04/30 00:04:56;;;;;;;;;;;12.40;49.00;;;;;;5018072;28;20281;-92
2022/04/30 00:07:22;;;;;;;;;;;12.40;49.10;;;;;;5018927;28;19953;-92
2022/04/30 00:09:48;;;;;;;;;;;12.40;49.00;;;;;;5018751;28;20373;-91
2022/04/30 00:12:13;;;;;;;;;;;12.30;49.10;;;;;;5018200;28;20770;-91
2022/04/30 00:14:39;;;;;;;;;;;12.30;49.30;;;;;;5016547;28;19918;-90
2022/04/30 00:17:05;;;;;;;;;;;12.20;49.30;;;;;;5018173;28;19914;-90
2022/04/30 00:19:31;;;;;;;;;;;12.20;49.40;;;;;;5018204;28;19981;-91
2022/04/30 00:21:57;;;;;;;;;;;12.20;49.20;;;;;;5018230;28;19913;-91
2022/04/30 00:24:26;;;;;;;;;;;12.10;49.30;;;;;;5018539;28;20358;-91
2022/04/30 00:26:52;;;;;;;;;;;12.00;49.50;;;;;;5017801;28;19914;-90
2022/04/30 00:29:17;;;;;;;;;;;12.00;49.70;;;;;;5019750;28;19917;-90
2022/04/30 00:31:43;;;;;;;;;;;12.00;49.90;;;;;;5019141;28;19921;-91
2022/04/30 00:34:09;;;;;;;;;;;12.00;49.90;;;;;;5018108;28;19989;-90
2022/04/30 00:36:35;;;;;;;;;;;12.00;50.10;;;;;;5018538;28;19913;-90
2022/04/30 00:39:00;;;;;;;;;;;12.00;50.20;;;;;;5017984;28;19968;-90
2022/04/30 00:41:26;;;;;;;;;;;11.90;50.30;;;;;;5019874;28;19950;-90
2022/04/30 00:43:53;;;;;;;;;;;12.00;50.20;;;;;;5018789;28;19925;-90
2022/04/30 00:46:20;;;;;;;;;;;12.00;50.20;;;;;;5018365;28;19946;-93
2022/04/30 00:48:46;;;;;;;;;;;12.00;50.20;;;;;;5018704;28;20347;-92
2022/04/30 00:51:12;;;;;;;;;;;11.90;50.10;;;;;;5017829;28;19913;-92
2022/04/30 00:53:43;;;;;;;;;;;12.00;50.10;;;;;;5018823;28;19898;-92
2022/04/30 00:56:09;;;;;;;;;;;12.00;49.90;;;;;;5018266;28;20377;-90
2022/04/30 00:58:35;;;;;;;;;;;12.00;49.70;;;;;;5017890;28;19913;-92
2022/04/30 01:01:01;;;;;;;;;;;11.90;49.60;;;;;;5017632;28;19961;-92
2022/04/30 01:03:27;;;;;;;;;;;12.00;49.60;;;;;;5017910;28;19924;-92
2022/04/30 01:05:52;;;;;;;;;;;11.90;49.50;;;;;;5019300;28;20401;-92
2022/04/30 01:08:19;;;;;;;;;;;12.00;49.50;;;;;;5017676;28;19937;-92
2022/04/30 01:10:44;;;;;;;;;;;12.00;49.40;;;;;;5000290;28;19917;-92
2022/04/30 01:13:13;;;;;;;;;;;11.90;49.50;;;;;;5017661;28;19939;-92
2022/04/30 01:15:39;;;;;;;;;;;11.90;49.60;;;;;;5018033;28;19917;-92
2022/04/30 01:18:08;;;;;;;;;;;11.90;49.60;;;;;;5017161;28;19909;-92
2022/04/30 01:20:34;;;;;;;;;;;11.90;49.70;;;;;;5016968;28;19953;-91
2022/04/30 01:23:04;;;;;;;;;;;11.90;49.70;;;;;;5018297;28;20293;-91
2022/04/30 01:25:33;;;;;;;;;;;11.80;49.60;;;;;;5017413;28;19922;-90
2022/04/30 01:27:59;;;;;;;;;;;11.80;50.00;;;;;;5019240;28;19914;-91
2022/04/30 01:30:25;;;;;;;;;;;11.80;50.10;;;;;;5018424;28;19914;-91
2022/04/30 01:38:20;;;;;;;;;;;11.80;50.30;;;;;;5020056;28;19944;-91
2022/04/30 01:40:46;;;;;;;;;;;11.70;50.10;;;;;;5019192;28;19932;-91
2022/04/30 01:43:12;;;;;;;;;;;11.70;49.90;;;;;;5019848;28;19914;-91
2022/04/30 01:45:37;;;;;;;;;;;11.70;49.70;;;;;;5001906;28;19929;-91
2022/04/30 01:48:03;;;;;;;;;;;11.60;49.90;;;;;;5017943;28;19945;-92
2022/04/30 01:50:29;;;;;;;;;;;11.60;50.30;;;;;;5018180;28;19981;-90
2022/04/30 01:52:55;;;;;;;;;;;11.50;50.70;;;;;;5019490;28;19941;-90
2022/04/30 01:55:20;;;;;;;;;;;11.50;50.80;;;;;;5018414;28;19914;-91
2022/04/30 01:57:46;;;;;;;;;;;11.40;50.90;;;;;;5019323;28;19940;-92
2022/04/30 02:00:14;;;;;;;;;;;11.40;51.10;;;;;;5017055;28;19914;-91
2022/04/30 02:02:41;;;;;;;;;;;11.30;51.10;;;;;;5020090;28;19971;-91
2022/04/30 02:05:08;;;;;;;;;;;11.30;51.10;;;;;;5002396;28;19933;-90
2022/04/30 02:07:34;;;;;;;;;;;11.30;51.00;;;;;;5018388;28;20353;-91
2022/04/30 02:10:00;;;;;;;;;;;11.20;50.90;;;;;;5017866;28;20317;-91
2022/04/30 02:12:29;;;;;;;;;;;11.20;51.20;;;;;;5018714;28;19917;-91
2022/04/30 02:14:54;;;;;;;;;;;11.20;51.20;;;;;;5019650;28;19917;-91
2022/04/30 02:17:21;;;;;;;;;;;11.10;51.20;;;;;;5018902;28;20358;-90
2022/04/30 02:22:37;;;;;;;;;;;11.10;51.40;;;;;;5019089;28;19925;-90
2022/04/30 02:25:09;;;;;;;;;;;11.00;51.50;;;;;;5017079;28;19985;-90
2022/04/30 02:27:39;;;;;;;;;;;11.00;51.70;;;;;;5016692;28;20336;-91
2022/04/30 02:30:05;;;;;;;;;;;11.00;51.90;;;;;;5016929;28;19913;-91
2022/04/30 02:32:38;;;;;;;;;;;11.00;52.20;;;;;;5017790;28;19914;-92
2022/04/30 02:35:04;;;;;;;;;;;11.00;52.30;;;;;;5016868;28;19913;-92
2022/04/30 02:37:30;;;;;;;;;;;11.00;52.20;;;;;;5017070;28;20344;-92
2022/04/30 02:39:55;;;;;;;;;;;11.00;52.20;;;;;;5017158;28;19917;-92
2022/04/30 02:42:21;;;;;;;;;;;11.00;52.10;;;;;;5017188;28;19960;-91
2022/04/30 02:44:46;;;;;;;;;;;11.00;52.00;;;;;;5017455;28;19917;-92
2022/04/30 02:47:13;;;;;;;;;;;11.00;52.20;;;;;;5022367;28;19960;-91
2022/04/30 02:49:38;;;;;;;;;;;11.00;52.30;;;;;;5019644;28;19924;-91
2022/04/30 02:52:04;;;;;;;;;;;11.00;52.40;;;;;;5021230;28;19914;-90
2022/04/30 02:54:30;;;;;;;;;;;11.00;52.30;;;;;;5021251;28;19914;-92
2022/04/30 02:56:56;;;;;;;;;;;11.00;52.50;;;;;;5021570;28;19941;-92
2022/04/30 03:02:05;;;;;;;;;;;11.00;52.10;;;;;;5021675;28;19993;-90
2022/04/30 03:04:31;;;;;;;;;;;11.00;52.20;;;;;;5020335;28;19917;-92
2022/04/30 03:06:57;;;;;;;;;;;11.00;52.30;;;;;;5019817;28;19997;-93
2022/04/30 03:09:22;;;;;;;;;;;11.10;52.30;;;;;;5019886;28;19909;-90
2022/04/30 03:11:48;;;;;;;;;;;11.10;52.40;;;;;;5020164;28;19929;-92
2022/04/30 03:14:13;;;;;;;;;;;11.20;52.30;;;;;;5020087;28;19913;-92
2022/04/30 03:22:07;;;;;;;;;;;11.30;52.00;;;;;;5021731;28;19968;-89
2022/04/30 03:24:33;;;;;;;;;;;11.30;51.80;;;;;;5020494;28;19914;-90
2022/04/30 03:26:58;;;;;;;;;;;11.40;51.70;;;;;;5021786;28;19906;-90
2022/04/30 03:29:24;;;;;;;;;;;11.40;51.70;;;;;;5019147;28;20242;-90
2022/04/30 03:31:49;;;;;;;;;;;11.50;51.60;;;;;;5018451;28;19921;-90
2022/04/30 03:34:15;;;;;;;;;;;11.50;51.60;;;;;;5019621;28;19914;-91
2022/04/30 03:36:42;;;;;;;;;;;11.50;51.60;;;;;;5019528;28;20281;-91
2022/04/30 03:39:09;;;;;;;;;;;11.60;51.50;;;;;;5019776;28;20316;-91
2022/04/30 03:41:34;;;;;;;;;;;11.50;51.60;;;;;;5018916;28;19972;-91
2022/04/30 03:44:01;;;;;;;;;;;11.60;51.60;;;;;;5020020;28;19921;-91
2022/04/30 03:46:27;;;;;;;;;;;11.60;51.80;;;;;;5019997;28;19917;-90
2022/04/30 03:48:53;;;;;;;;;;;11.60;51.80;;;;;;5019984;28;20012;-91
2022/04/30 03:51:23;;;;;;;;;;;11.70;51.80;;;;;;5019401;28;19967;-90
2022/04/30 03:53:48;;;;;;;;;;;11.70;51.70;;;;;;5019207;28;19925;-90
2022/04/30 03:56:16;;;;;;;;;;;11.70;51.60;;;;;;5019080;28;19917;-91
2022/04/30 03:58:42;;;;;;;;;;;11.70;51.70;;;;;;5019342;28;19914;-91
2022/04/30 04:01:07;;;;;;;;;;;11.70;51.70;;;;;;5018210;28;19920;-91
2022/04/30 04:03:33;;;;;;;;;;;11.80;51.90;;;;;;5018056;28;20001;-91
2022/04/30 04:05:59;;;;;;;;;;;11.80;51.70;;;;;;5002607;28;19913;-91
2022/04/30 04:08:25;;;;;;;;;;;11.80;51.60;;;;;;5020468;28;19913;-91
2022/04/30 04:10:50;;;;;;;;;;;11.80;51.70;;;;;;5019465;28;19914;-92
2022/04/30 04:18:44;;;;;;;;;;;11.80;51.70;;;;;;5020649;28;19932;-91
2022/04/30 04:21:11;;;;;;;;;;;11.80;51.90;;;;;;5020748;28;20008;-91
2022/04/30 04:26:21;;;;;;;;;;;11.80;52.00;;;;;;5020243;28;19924;-92
2022/04/30 04:28:47;;;;;;;;;;;11.80;52.00;;;;;;5002354;28;20007;-91
2022/04/30 04:31:13;;;;;;;;;;;11.80;52.10;;;;;;5020161;28;19922;-91
2022/04/30 04:33:38;;;;;;;;;;;11.80;52.10;;;;;;5018590;28;19973;-92
2022/04/30 04:36:04;;;;;;;;;;;11.90;52.40;;;;;;5019210;28;19976;-92
2022/04/30 04:38:32;;;;;;;;;;;11.90;52.50;;;;;;5019149;28;19968;-91
2022/04/30 04:40:58;;;;;;;;;;;12.00;52.70;;;;;;5019113;28;19945;-92
2022/04/30 04:43:23;;;;;;;;;;;12.00;52.70;;;;;;5018608;28;19913;-91
2022/04/30 04:45:48;;;;;;;;;;;12.10;52.70;;;;;;5018545;28;20376;-92
2022/04/30 04:48:14;;;;;;;;;;;12.10;52.60;;;;;;5018410;28;19914;-91
2022/04/30 04:50:40;;;;;;;;;;;12.20;52.70;;;;;;5018892;28;19921;-90
2022/04/30 04:53:06;;;;;;;;;;;12.20;52.50;;;;;;5019924;28;20297;-91
2022/04/30 04:55:31;;;;;;;;;;;12.30;52.30;;;;;;5002840;28;19909;-91
2022/04/30 04:57:57;;;;;;;;;;;12.40;52.30;;;;;;5018705;28;19913;-90
2022/04/30 05:00:22;;;;;;;;;;;12.50;52.30;;;;;;5019569;28;19894;-90
2022/04/30 05:02:48;;;;;;;;;;;12.50;52.30;;;;;;5018081;28;19918;-91
2022/04/30 05:05:14;;;;;;;;;;;12.60;52.20;;;;;;5018391;28;20388;-92
2022/04/30 05:07:39;;;;;;;;;;;12.70;52.10;;;;;;5017756;28;20274;-92
2022/04/30 05:10:05;;;;;;;;;;;12.80;52.00;;;;;;5018970;28;19917;-91
2022/04/30 05:12:32;;;;;;;;;;;12.80;51.90;;;;;;5018139;28;19949;-90
2022/04/30 05:14:57;;;;;;;;;;;12.90;51.80;;;;;;5002358;28;20280;-91
2022/04/30 05:17:23;;;;;;;;;;;13.00;51.80;;;;;;5018836;28;20004;-91
2022/04/30 05:19:48;;;;;;;;;;;13.10;51.80;;;;;;5018746;28;19913;-92
2022/04/30 05:22:14;;;;;;;;;;;13.20;51.70;;;;;;5018458;28;19929;-91
2022/04/30 05:24:39;;;;;;;;;;;13.30;51.70;;;;;;5017991;28;19918;-91
2022/04/30 05:27:08;;;;;;;;;;;13.30;51.70;;;;;;5019528;28;19924;-91
2022/04/30 05:29:34;;;;;;;;;;;13.40;51.70;;;;;;5017777;28;19960;-91
2022/04/30 05:31:59;;;;;;;;;;;13.50;51.70;;;;;;5018351;28;19917;-92
2022/04/30 05:34:25;;;;;;;;;;;13.60;51.60;;;;;;5019073;28;19909;-91
2022/04/30 05:36:50;;;;;;;;;;;13.70;51.60;;;;;;5017236;28;19917;-90
2022/04/30 05:39:16;;;;;;;;;;;13.80;51.50;;;;;;5020265;28;19909;-90
2022/04/30 05:41:41;;;;;;;;;;;13.80;51.40;;;;;;5018167;28;19957;-91
2022/04/30 05:44:07;;;;;;;;;;;13.80;51.20;;;;;;5017371;28;19963;-92
2022/04/30 05:46:32;;;;;;;;;;;14.00;51.10;;;;;;5017402;28;19948;-91
2022/04/30 05:48:58;;;;;;;;;;;14.00;50.90;;;;;;5016233;28;19919;-92
2022/04/30 05:51:23;;;;;;;;;;;14.00;50.90;;;;;;5017065;28;19919;-93
2022/04/30 05:53:49;;;;;;;;;;;14.00;50.80;;;;;;5017506;28;19913;-92
2022/04/30 05:56:14;;;;;;;;;;;14.10;50.70;;;;;;5018393;28;19918;-92
2022/04/30 05:58:40;;;;;;;;;;;14.20;50.70;;;;;;5017595;28;20037;-93
2022/04/30 06:01:09;;;;;;;;;;;14.30;50.70;;;;;;5017036;28;19917;-92
2022/04/30 06:03:34;;;;;;;;;;;14.30;50.60;;;;;;5016263;28;20003;-92
2022/04/30 06:06:00;;;;;;;;;;;14.40;50.40;;;;;;5016473;28;20316;-92
2022/04/30 06:08:26;;;;;;;;;;;14.50;50.30;;;;;;5018195;28;19961;-91
2022/04/30 06:10:51;;;;;;;;;;;14.60;50.30;;;;;;5017812;28;20015;-92
2022/04/30 06:13:16;;;;;;;;;;;14.70;50.30;;;;;;5018029;28;19913;-91
2022/04/30 06:15:42;;;;;;;;;;;14.80;50.10;;;;;;5017995;28;19914;-92
2022/04/30 06:18:08;;;;;;;;;;;15.00;49.70;;;;;;5016767;28;19918;-92
2022/04/30 06:20:34;;;;;;;;;;;15.10;49.50;;;;;;5017838;28;19909;-91
2022/04/30 06:23:00;;;;;;;;;;;15.10;49.10;;;;;;5016560;28;19921;-90
2022/04/30 06:25:26;;;;;;;;;;;15.20;49.00;;;;;;5016508;28;19917;-92
2022/04/30 06:27:51;;;;;;;;;;;15.20;48.90;;;;;;5018459;28;20293;-92
2022/04/30 06:30:17;;;;;;;;;;;15.30;49.00;;;;;;5018931;28;20354;-92
2022/04/30 06:32:44;;;;;;;;;;;15.40;48.70;;;;;;5019092;28;19917;-92
2022/04/30 06:35:10;;;;;;;;;;;15.50;48.50;;;;;;5019520;28;19917;-92
2022/04/30 06:37:35;;;;;;;;;;;15.50;48.40;;;;;;5019784;28;19913;-92
2022/04/30 06:40:01;;;;;;;;;;;15.60;48.50;;;;;;5019170;28;20265;-91
2022/04/30 06:42:26;;;;;;;;;;;15.80;48.60;;;;;;5020890;28;20023;-92
2022/04/30 06:44:52;;;;;;;;;;;15.90;48.10;;;;;;5020267;28;19913;-91
2022/04/30 06:47:20;;;;;;;;;;;16.00;47.80;;;;;;5020158;28;19917;-93
2022/04/30 06:49:46;;;;;;;;;;;16.10;47.70;;;;;;5021022;28;19957;-92
2022/04/30 06:52:11;;;;;;;;;;;16.20;47.70;;;;;;5020475;28;19920;-92
2022/04/30 06:57:21;;;;;;;;;;;16.40;47.20;;;;;;5021703;28;19952;-92
2022/04/30 06:59:51;;;;;;;;;;;16.50;46.70;;;;;;5020523;28;19921;-92
2022/04/30 07:02:22;;;;;;;;;;;16.70;46.70;;;;;;5021072;28;19913;-92
2022/04/30 07:04:50;;;;;;;;;;;16.80;46.50;;;;;;5020647;28;20016;-92
2022/04/30 07:07:17;;;;;;;;;;;17.00;46.40;;;;;;5019991;28;19924;-92
2022/04/30 07:09:42;;;;;;;;;;;17.20;45.80;;;;;;5019679;28;19944;-92
2022/04/30 07:12:09;;;;;;;;;;;17.30;45.60;;;;;;5020348;28;19953;-92
2022/04/30 07:14:40;;;;;;;;;;;17.40;45.20;;;;;;5021100;28;20445;-91
2022/04/30 07:17:09;;;;;;;;;;;17.50;44.80;;;;;;5021013;28;19984;-92
2022/04/30 07:19:35;;;;;;;;;;;17.70;44.60;;;;;;5020010;28;19932;-91
2022/04/30 07:22:02;;;;;;;;;;;17.80;44.10;;;;;;5020068;28;20012;-92
2022/04/30 07:24:28;;;;;;;;;;;17.80;43.10;;;;;;5020848;28;20373;-90
2022/04/30 07:26:53;;;;;;;;;;;17.80;42.50;;;;;;5020420;28;19921;-91
2022/04/30 07:29:19;;;;;;;;;;;17.80;42.80;;;;;;5019079;28;19917;-92
2022/04/30 07:31:44;;;;;;;;;;;17.80;42.40;;;;;;5021079;28;19917;-91
2022/04/30 07:34:12;;;;;;;;;;;17.80;42.20;;;;;;5020354;28;20080;-90
2022/04/30 07:36:38;;;;;;;;;;;17.80;42.10;;;;;;5023204;28;19945;-92
2022/04/30 07:39:04;;;;;;;;;;;17.80;42.10;;;;;;5022735;28;20288;-91
2022/04/30 07:41:30;;;;;;;;;;;17.80;42.10;;;;;;5022475;28;20285;-91
2022/04/30 07:43:55;;;;;;;;;;;17.90;42.60;;;;;;5024233;28;19948;-91
2022/04/30 07:46:24;;;;;;;;;;;18.00;42.50;;;;;;5018408;28;19925;-92
2022/04/30 07:48:50;;;;;;;;;;;18.10;42.00;;;;;;5019891;28;19916;-91
2022/04/30 07:51:23;;;;;;;;;;;18.00;41.70;;;;;;5003022;28;19925;-90
2022/04/30 07:53:49;;;;;;;;;;;18.10;41.40;;;;;;5020808;28;19955;-90
2022/04/30 07:56:14;;;;;;;;;;;18.20;41.20;;;;;;5004319;28;19917;-91
2022/04/30 07:58:40;;;;;;;;;;;18.20;41.30;;;;;;5003508;28;20012;-92
2022/04/30 08:01:14;;;;;;;;;;;18.30;40.90;;;;;;5003057;28;19922;-90
2022/04/30 08:03:40;;;;;;;;;;;18.30;40.50;;;;;;5019352;28;19959;-91
2022/04/30 08:06:05;;;;;;;;;;;18.40;40.50;;;;;;5003892;28;20353;-91
2022/04/30 08:08:32;;;;;;;;;;;18.50;40.20;;;;;;5022716;28;19914;-91
2022/04/30 08:10:57;;;;;;;;;;;18.70;39.30;;;;;;5024769;28;19920;-92
2022/04/30 08:13:23;;;;;;;;;;;18.70;38.90;;;;;;5013184;28;19914;-92
2022/04/30 08:15:49;;;;;;;;;;;18.80;38.40;;;;;;5020753;28;20381;-91
2022/04/30 08:18:15;;;;;;;;;;;18.80;38.10;;;;;;5030431;28;19920;-93
2022/04/30 08:20:41;;;;;;;;;;;18.90;37.90;;;;;;5024319;28;19913;-91
2022/04/30 08:23:06;;;;;;;;;;;19.00;38.00;;;;;;5033085;28;20312;-90
2022/04/30 08:25:35;;;;;;;;;;;19.20;38.00;;;;;;5004260;28;20369;-92
2022/04/30 08:28:02;;;;;;;;;;;19.40;37.50;;;;;;5021750;28;20385;-91
2022/04/30 08:30:27;;;;;;;;;;;19.70;37.30;;;;;;5003254;28;19914;-91
2022/04/30 08:32:53;;;;;;;;;;;20.00;36.80;;;;;;5019973;28;19913;-93
2022/04/30 08:35:18;;;;;;;;;;;20.30;36.10;;;;;;5002320;28;19909;-92
2022/04/30 08:37:44;;;;;;;;;;;20.70;36.30;;;;;;5005716;28;20007;-93
2022/04/30 08:40:10;;;;;;;;;;;21.20;35.40;;;;;;4998659;28;19921;-92
2022/04/30 08:42:35;;;;;;;;;;;21.50;34.10;;;;;;4984268;28;19930;-92
2022/04/30 08:45:02;;;;;;;;;;;21.50;33.30;;;;;;5002367;28;19917;-92
2022/04/30 08:47:29;;;;;;;;;;;21.70;33.60;;;;;;5001147;28;20004;-92
2022/04/30 08:49:55;;;;;;;;;;;22.00;33.30;;;;;;5019729;28;19919;-93
2022/04/30 08:52:21;;;;;;;;;;;22.40;33.40;;;;;;5019085;28;19925;-92
2022/04/30 08:54:46;;;;;;;;;;;22.80;32.30;;;;;;5002705;28;20385;-93
2022/04/30 08:57:12;;;;;;;;;;;23.00;32.00;;;;;;5002819;28;19977;-92
2022/04/30 08:59:37;;;;;;;;;;;23.20;31.90;;;;;;5022383;28;19917;-92
2022/04/30 09:02:07;;;;;;;;;;;23.30;31.20;;;;;;5022859;28;19913;-92
2022/04/30 09:04:41;;;;;;;;;;;23.50;31.00;;;;;;5018970;28;19932;-92
2022/04/30 09:07:11;;;;;;;;;;;23.60;30.70;;;;;;5019522;28;19921;-92
2022/04/30 09:09:36;;;;;;;;;;;23.70;30.10;;;;;;5002460;28;20425;-92
2022/04/30 09:12:06;;;;;;;;;;;23.60;29.20;;;;;;5002338;28;19972;-92
2022/04/30 09:14:31;;;;;;;;;;;23.50;29.60;;;;;;5019544;28;19912;-92
2022/04/30 09:17:02;;;;;;;;;;;23.70;30.20;;;;;;5001664;28;19913;-93
2022/04/30 09:19:27;;;;;;;;;;;24.00;30.40;;;;;;5002490;28;19917;-93
2022/04/30 09:21:53;;;;;;;;;;;24.50;29.70;;;;;;5001098;28;20380;-92
2022/04/30 09:24:19;;;;;;;;;;;24.80;29.30;;;;;;4999883;28;20412;-92
2022/04/30 09:26:44;;;;;;;;;;;25.00;28.90;;;;;;5020326;28;19921;-93
2022/04/30 09:29:20;;;;;;;;;;;25.10;28.30;;;;;;5019816;28;19924;-93
2022/04/30 09:31:50;;;;;;;;;;;25.00;27.90;;;;;;5020742;28;20391;-93
2022/04/30 09:39:56;;;;;;;;;;;25.40;27.20;;;;;;5003467;28;19924;-94
2022/04/30 09:42:27;;;;;;;;;;;25.60;27.40;;;;;;5002749;28;19921;-94
2022/04/30 09:44:55;;;;;;;;;;;25.70;27.00;;;;;;5004419;28;19924;-94
2022/04/30 09:47:20;;;;;;;;;;;25.80;27.40;;;;;;5003964;28;19914;-93
2022/04/30 09:55:16;;;;;;;;;;;25.90;26.50;;;;;;5004604;28;19982;-93
2022/04/30 09:57:42;;;;;;;;;;;25.90;26.80;;;;;;5000813;28;19952;-92
2022/04/30 10:00:10;;;;;;;;;;;26.20;27.00;;;;;;5002152;28;19914;-91
2022/04/30 10:02:36;;;;;;;;;;;26.20;26.30;;;;;;5000919;28;20373;-91
2022/04/30 10:05:02;;;;;;;;;;;26.20;26.50;;;;;;5001669;28;20020;-92
2022/04/30 10:07:33;;;;;;;;;;;26.00;26.40;;;;;;5002104;28;20004;-92
2022/04/30 10:10:22;;;;;;;;;;;25.70;26.80;;;;;;5002005;28;19918;-93
2022/04/30 10:13:07;;;;;;;;;;;25.60;26.80;;;;;;4977973;28;19977;-91
2022/04/30 10:16:05;;;;;;;;;;;25.40;27.10;;;;;;5001838;28;20342;-92
2022/04/30 10:18:43;;;;;;;;;;;25.30;27.10;;;;;;4982553;28;19918;-92
2022/04/30 10:21:18;;;;;;;;;;;25.00;27.00;;;;;;5020799;28;19953;-92
2022/04/30 10:23:44;;;;;;;;;;;24.90;27.40;;;;;;5003949;28;19964;-91
2022/04/30 10:26:12;;;;;;;;;;;24.70;27.50;;;;;;5023273;28;19914;-91
2022/04/30 10:28:38;;;;;;;;;;;24.40;27.70;;;;;;5004581;28;19988;-91
2022/04/30 10:31:05;;;;;;;;;;;24.20;28.20;;;;;;5005118;28;19917;-92
2022/04/30 10:33:31;;;;;;;;;;;24.00;28.40;;;;;;5004644;28;19920;-92
2022/04/30 10:36:10;;;;;;;;;;;23.80;28.80;;;;;;5005429;28;19953;-92
2022/04/30 10:38:39;;;;;;;;;;;23.80;29.00;;;;;;5004584;28;19909;-92
2022/04/30 10:41:08;;;;;;;;;;;23.80;29.30;;;;;;5003910;28;19943;-92
2022/04/30 10:43:37;;;;;;;;;;;23.70;29.40;;;;;;5004463;28;19917;-92
2022/04/30 10:46:05;;;;;;;;;;;23.50;29.70;;;;;;5003125;28;19921;-91
2022/04/30 10:48:32;;;;;;;;;;;23.50;29.90;;;;;;5003494;28;19944;-93
2022/04/30 10:51:05;;;;;;;;;;;23.50;30.10;;;;;;5003824;28;19925;-91
2022/04/30 10:53:32;;;;;;;;;;;23.60;30.10;;;;;;5021464;28;19924;-92
2022/04/30 10:55:59;;;;;;;;;;;23.70;29.80;;;;;;5020899;28;19967;-92
2022/04/30 10:58:31;;;;;;;;;;;23.60;29.80;;;;;;5020203;28;19923;-92
2022/04/30 11:00:57;;;;;;;;;;;23.60;29.90;;;;;;4986213;28;20355;-90
2022/04/30 11:03:30;;;;;;;;;;;23.70;30.10;;;;;;5000639;28;19960;-91
2022/04/30 11:05:57;;;;;;;;;;;23.80;30.10;;;;;;4994184;28;19916;-90
2022/04/30 11:08:23;;;;;;;;;;;23.80;29.80;;;;;;5006619;28;19910;-90
2022/04/30 11:11:05;;;;;;;;;;;23.70;29.60;;;;;;5005281;28;19925;-89
2022/04/30 11:13:31;;;;;;;;;;;23.60;29.40;;;;;;5020135;28;19964;-90
2022/04/30 11:15:59;;;;;;;;;;;23.60;29.60;;;;;;5022134;28;19964;-90
2022/04/30 11:18:25;;;;;;;;;;;23.80;29.70;;;;;;5020558;28;20005;-91
2022/04/30 11:21:00;;;;;;;;;;;23.90;29.20;;;;;;5021148;28;20657;-92
2022/04/30 11:23:25;;;;;;;;;;;24.00;29.20;;;;;;4998208;28;19975;-91
2022/04/30 11:25:51;;;;;;;;;;;23.90;28.90;;;;;;5019997;28;19913;-90
2022/04/30 11:28:17;;;;;;;;;;;23.80;28.70;;;;;;5007527;28;19975;-90
2022/04/30 11:30:43;;;;;;;;;;;23.60;28.70;;;;;;5002322;28;19918;-90
2022/04/30 11:33:09;;;;;;;;;;;23.40;28.80;;;;;;5017844;28;19917;-90
2022/04/30 11:35:35;;;;;;;;;;;23.30;29.20;;;;;;5003731;28;20012;-91
2022/04/30 11:38:01;;;;;;;;;;;23.30;29.50;;;;;;5022437;28;19957;-91
2022/04/30 11:40:26;;;;;;;;;;;23.30;29.40;;;;;;5020268;28;20365;-91
2022/04/30 11:42:56;;;;;;;;;;;23.30;29.30;;;;;;5001911;28;19996;-90
2022/04/30 11:45:31;;;;;;;;;;;23.30;29.30;;;;;;5006212;28;20385;-91
2022/04/30 11:47:57;;;;;;;;;;;23.30;29.50;;;;;;5010328;28;19967;-90
2022/04/30 11:50:23;;;;;;;;;;;23.40;29.70;;;;;;5018477;28;19921;-91
2022/04/30 11:52:49;;;;;;;;;;;23.70;29.60;;;;;;5006234;28;19933;-91
2022/04/30 11:55:15;;;;;;;;;;;23.80;29.50;;;;;;5022824;28;19925;-90
2022/04/30 11:58:05;;;;;;;;;;;24.00;29.60;;;;;;5017287;28;19949;-90
2022/04/30 12:00:33;;;;;;;;;;;24.10;29.10;;;;;;5006808;23;19930;-91
2022/04/30 12:02:58;;;;;;;;;;;24.00;29.00;;;;;;4981750;28;19937;-91
2022/04/30 12:05:24;;;;;;;;;;;23.90;29.10;;;;;;4984426;28;19921;-88
2022/04/30 12:07:50;;;;;;;;;;;23.90;28.80;;;;;;5005485;28;19918;-88
2022/04/30 12:10:17;;;;;;;;;;;23.80;28.70;;;;;;5003658;28;19925;-89
2022/04/30 12:12:42;;;;;;;;;;;23.80;29.00;;;;;;4989619;28;20293;-89
2022/04/30 12:15:21;;;;;;;;;;;23.90;28.50;;;;;;4966743;28;20018;-88
2022/04/30 12:24:40;;;;;;;;;;;24.00;28.30;;;;;;4972816;28;19922;-88
2022/04/30 12:26:09;;;;;;;;;;;24.30;28.20;;;;;;4997959;28;19925;-90
2022/04/30 12:28:45;;;;;;;;;;;24.40;28.50;;;;;;4996691;28;19924;-90
2022/04/30 12:31:10;;;;;;;;;;;24.40;28.30;;;;;;5000858;28;19976;-88
2022/04/30 12:33:41;;;;;;;;;;;24.20;27.90;;;;;;4985752;28;20333;-90
2022/04/30 12:36:10;;;;;;;;;;;24.00;27.90;;;;;;4978270;28;20519;-90
2022/04/30 12:38:36;;;;;;;;;;;23.80;28.10;;;;;;4977055;28;19925;-91
2022/04/30 12:41:01;;;;;;;;;;;23.80;28.20;;;;;;4993128;28;19923;-88
2022/04/30 12:43:31;;;;;;;;;;;23.80;28.30;;;;;;4977586;28;19954;-88
2022/04/30 12:45:56;;;;;;;;;;;23.90;28.40;;;;;;4966859;28;19922;-88
2022/04/30 12:48:22;;;;;;;;;;;24.10;28.50;;;;;;4998723;28;20267;-88
2022/04/30 12:50:47;;;;;;;;;;;24.20;27.80;;;;;;4984298;28;19929;-87
2022/04/30 12:53:13;;;;;;;;;;;24.30;28.00;;;;;;4983279;28;19918;-90
2022/04/30 12:55:40;;;;;;;;;;;24.50;28.00;;;;;;4975909;28;19973;-91
2022/04/30 12:58:06;;;;;;;;;;;24.80;27.60;;;;;;4977658;28;19918;-90
2022/04/30 13:00:33;;;;;;;;;;;24.90;27.50;;;;;;4992149;28;20013;-88
2022/04/30 13:02:59;;;;;;;;;;;25.00;26.80;;;;;;4978851;28;19964;-87
2022/04/30 13:05:26;;;;;;;;;;;25.00;26.80;;;;;;4977350;28;19929;-92
2022/04/30 13:07:52;;;;;;;;;;;25.00;26.90;;;;;;4978336;28;19968;-90
2022/04/30 13:15:46;;;;;;;;;;;24.70;26.40;;;;;;5002434;28;19977;-90
2022/04/30 13:18:12;;;;;;;;;;;24.50;26.90;;;;;;5001482;28;20320;-90
2022/04/30 13:20:38;;;;;;;;;;;24.50;27.20;;;;;;4999073;28;20372;-90
2022/04/30 13:23:03;;;;;;;;;;;24.50;27.00;;;;;;4997016;28;19936;-90
2022/04/30 13:25:29;;;;;;;;;;;24.50;26.90;;;;;;4989593;28;20012;-90
2022/04/30 13:27:56;;;;;;;;;;;24.80;26.80;;;;;;5004243;28;19981;-87
2022/04/30 13:30:21;;;;;;;;;;;25.20;26.90;;;;;;4998206;28;19953;-91
2022/04/30 13:32:47;;;;;;;;;;;25.80;26.30;;;;;;4982213;28;20281;-91
2022/04/30 13:35:20;;;;;;;;;;;26.40;25.40;;;;;;4980010;28;19933;-91
2022/04/30 13:37:46;;;;;;;;;;;27.00;25.00;;;;;;4986329;28;19918;-90
2022/04/30 13:40:15;;;;;;;;;;;27.70;24.10;;;;;;4986131;28;19954;-89
2022/04/30 13:42:41;;;;;;;;;;;27.40;24.10;;;;;;4983467;28;19992;-88
2022/04/30 13:45:07;;;;;;;;;;;27.10;24.50;;;;;;5005350;28;19976;-91
2022/04/30 13:47:33;;;;;;;;;;;26.80;24.50;;;;;;4991733;28;19914;-88
2022/04/30 13:49:59;;;;;;;;;;;26.60;24.00;;;;;;5002903;28;20396;-89
2022/04/30 13:52:25;;;;;;;;;;;26.30;24.00;;;;;;4979824;28;19922;-91
2022/04/30 13:54:50;;;;;;;;;;;26.10;24.10;;;;;;5001131;28;19922;-91
2022/04/30 13:57:16;;;;;;;;;;;25.90;24.00;;;;;;4986519;28;20428;-89
2022/04/30 13:59:42;;;;;;;;;;;25.80;24.20;;;;;;4969686;28;19934;-88
2022/04/30 14:02:10;;;;;;;;;;;25.90;24.30;;;;;;5003487;28;19918;-89
2022/04/30 14:04:36;;;;;;;;;;;26.30;24.40;;;;;;4991073;28;20036;-89
2022/04/30 14:07:05;;;;;;;;;;;26.60;24.30;;;;;;4987139;28;19922;-91
2022/04/30 14:09:30;;;;;;;;;;;26.70;24.40;;;;;;4986835;28;19922;-91
2022/04/30 14:11:56;;;;;;;;;;;26.80;23.80;;;;;;4980389;28;19932;-89
2022/04/30 14:20:05;;;;;;;;;;;26.80;24.10;;;;;;4948091;28;19926;-91
2022/04/30 14:22:33;;;;;;;;;;;26.70;24.00;;;;;;4977896;28;19950;-91
2022/04/30 14:24:59;;;;;;;;;;;26.40;23.90;;;;;;4989595;28;20004;-91
2022/04/30 14:27:25;;;;;;;;;;;26.10;24.20;;;;;;4989217;28;20445;-89
2022/04/30 14:29:50;;;;;;;;;;;25.70;24.40;;;;;;4989058;28;20290;-89
2022/04/30 14:32:19;;;;;;;;;;;25.30;24.70;;;;;;4976465;28;19956;-88
2022/04/30 14:34:44;;;;;;;;;;;25.10;25.00;;;;;;4996620;28;19972;-88
2022/04/30 14:37:10;;;;;;;;;;;24.80;25.30;;;;;;4996623;28;19918;-89
2022/04/30 14:39:35;;;;;;;;;;;24.80;25.50;;;;;;4994957;28;20617;-91
2022/04/30 14:42:02;;;;;;;;;;;24.80;25.60;;;;;;4994922;28;20708;-90
2022/04/30 14:44:28;;;;;;;;;;;24.70;25.10;;;;;;4996199;28;19976;-89
2022/04/30 14:46:54;;;;;;;;;;;24.60;25.40;;;;;;4995920;28;19925;-90
2022/04/30 14:49:20;;;;;;;;;;;24.50;25.40;;;;;;4998748;28;19930;-88
2022/04/30 14:51:46;;;;;;;;;;;24.30;25.40;;;;;;4997694;28;19940;-91
2022/04/30 14:54:11;;;;;;;;;;;24.20;25.60;;;;;;4998515;28;19929;-89
2022/04/30 14:56:37;;;;;;;;;;;24.10;25.80;;;;;;4983764;28;19922;-89
2022/04/30 14:59:03;;;;;;;;;;;24.00;26.10;;;;;;4980772;28;19929;-91
2022/04/30 15:01:28;;;;;;;;;;;23.80;26.00;;;;;;4989709;28;19921;-89
2022/04/30 15:03:54;;;;;;;;;;;23.60;25.90;;;;;;4983452;28;19933;-89
2022/04/30 15:06:19;;;;;;;;;;;23.40;26.10;;;;;;4999416;28;20222;-89
2022/04/30 15:08:45;;;;;;;;;;;23.20;26.40;;;;;;4981012;28;20341;-88